sensor_id;sensor_type;location;lat;lon;timestamp;pressure;altitude;pressure_sealevel;temperature;humidity
11672;BME280;5892;43.412;24.612;2023-08-06T00:01:01;98678.63;;;22.94;90.05
11672;BME280;5892;43.412;24.612;2023-08-06T00:03:28;98678.19;;;22.96;90.35
11672;BME280;5892;43.412;24.612;2023-08-06T00:05:55;98682.56;;;22.97;90.51
11672;BME280;5892;43.412;24.612;2023-08-06T00:08:23;98680.47;;;23.01;90.42
11672;BME280;5892;43.412;24.612;2023-08-06T00:10:51;98663.88;;;22.94;90.23
11672;BME280;5892;43.412;24.612;2023-08-06T00:13:18;98700.03;;;23.01;90.67
11672;BME280;5892;43.412;24.612;2023-08-06T00:15:47;98614.78;;;22.57;90.82
11672;BME280;5892;43.412;24.612;2023-08-06T00:18:14;98667.81;;;22.96;91.16
11672;BME280;5892;43.412;24.612;2023-08-06T00:20:41;98664.50;;;23.01;91.06
11672;BME280;5892;43.412;24.612;2023-08-06T00:23:08;98664.16;;;22.99;91.20
11672;BME280;5892;43.412;24.612;2023-08-06T00:25:35;98642.00;;;22.53;92.06
11672;BME280;5892;43.412;24.612;2023-08-06T00:28:03;98680.00;;;22.86;92.36
11672;BME280;5892;43.412;24.612;2023-08-06T00:30:31;98672.78;;;22.69;93.13
11672;BME280;5892;43.412;24.612;2023-08-06T00:32:58;98669.53;;;22.51;94.10
11672;BME280;5892;43.412;24.612;2023-08-06T00:35:25;98664.19;;;22.60;93.53
11672;BME280;5892;43.412;24.612;2023-08-06T00:37:51;98669.78;;;22.60;93.95
11672;BME280;5892;43.412;24.612;2023-08-06T00:40:20;98672.41;;;22.67;94.11
11672;BME280;5892;43.412;24.612;2023-08-06T00:42:48;98646.47;;;22.50;93.82
11672;BME280;5892;43.412;24.612;2023-08-06T00:45:17;98635.28;;;22.30;93.92
11672;BME280;5892;43.412;24.612;2023-08-06T00:47:45;98680.56;;;22.58;94.16
11672;BME280;5892;43.412;24.612;2023-08-06T00:50:13;98673.22;;;22.48;94.79
11672;BME280;5892;43.412;24.612;2023-08-06T00:52:40;98665.63;;;22.48;94.76
11672;BME280;5892;43.412;24.612;2023-08-06T00:55:08;98674.44;;;22.47;94.73
11672;BME280;5892;43.412;24.612;2023-08-06T00:57:35;98668.63;;;22.57;94.05
11672;BME280;5892;43.412;24.612;2023-08-06T01:00:03;98664.97;;;22.60;93.95
11672;BME280;5892;43.412;24.612;2023-08-06T01:02:31;98671.91;;;22.52;93.91
11672;BME280;5892;43.412;24.612;2023-08-06T01:05:00;98684.66;;;22.53;93.87
11672;BME280;5892;43.412;24.612;2023-08-06T01:07:40;98684.47;;;22.44;94.24
11672;BME280;5892;43.412;24.612;2023-08-06T01:10:22;98556.84;;;21.66;93.76
11672;BME280;5892;43.412;24.612;2023-08-06T01:12:57;98675.59;;;22.49;93.42
11672;BME280;5892;43.412;24.612;2023-08-06T01:15:32;98665.53;;;22.12;93.65
11672;BME280;5892;43.412;24.612;2023-08-06T01:18:03;98697.53;;;22.27;93.83
11672;BME280;5892;43.412;24.612;2023-08-06T01:20:31;98683.88;;;22.33;93.09
11672;BME280;5892;43.412;24.612;2023-08-06T01:23:02;98649.03;;;22.21;92.31
11672;BME280;5892;43.412;24.612;2023-08-06T01:25:32;98681.28;;;22.42;91.61
11672;BME280;5892;43.412;24.612;2023-08-06T01:28:06;98679.78;;;22.37;91.05
11672;BME280;5892;43.412;24.612;2023-08-06T01:30:37;98679.78;;;22.37;90.54
11672;BME280;5892;43.412;24.612;2023-08-06T01:33:10;98658.06;;;22.29;89.92
11672;BME280;5892;43.412;24.612;2023-08-06T01:35:43;98663.19;;;22.30;89.87
11672;BME280;5892;43.412;24.612;2023-08-06T01:38:11;98601.44;;;22.09;89.17
11672;BME280;5892;43.412;24.612;2023-08-06T01:40:38;98645.16;;;22.35;89.45
11672;BME280;5892;43.412;24.612;2023-08-06T01:43:05;98644.44;;;22.31;89.32
11672;BME280;5892;43.412;24.612;2023-08-06T01:45:32;98623.97;;;22.37;88.79
11672;BME280;5892;43.412;24.612;2023-08-06T01:48:03;98610.16;;;22.30;89.08
11672;BME280;5892;43.412;24.612;2023-08-06T01:50:31;98620.81;;;22.35;88.65
11672;BME280;5892;43.412;24.612;2023-08-06T01:53:02;98626.91;;;22.30;88.87
11672;BME280;5892;43.412;24.612;2023-08-06T01:55:29;98607.19;;;22.21;88.91
11672;BME280;5892;43.412;24.612;2023-08-06T01:57:56;98604.88;;;22.16;89.39
11672;BME280;5892;43.412;24.612;2023-08-06T02:00:23;98607.53;;;22.23;89.25
11672;BME280;5892;43.412;24.612;2023-08-06T02:02:49;98600.59;;;22.12;89.54
11672;BME280;5892;43.412;24.612;2023-08-06T02:05:16;98580.41;;;22.04;89.61
11672;BME280;5892;43.412;24.612;2023-08-06T02:07:43;98587.78;;;22.14;89.73
11672;BME280;5892;43.412;24.612;2023-08-06T02:10:11;98593.34;;;22.14;89.33
11672;BME280;5892;43.412;24.612;2023-08-06T02:12:38;98603.22;;;21.99;90.38
11672;BME280;5892;43.412;24.612;2023-08-06T02:15:06;98615.28;;;21.92;91.15
11672;BME280;5892;43.412;24.612;2023-08-06T02:17:33;98595.53;;;21.83;91.42
11672;BME280;5892;43.412;24.612;2023-08-06T02:20:02;98618.34;;;22.02;91.04
11672;BME280;5892;43.412;24.612;2023-08-06T02:22:36;98626.44;;;21.92;91.69
11672;BME280;5892;43.412;24.612;2023-08-06T02:25:04;98632.94;;;21.86;92.10
11672;BME280;5892;43.412;24.612;2023-08-06T02:27:33;98632.16;;;21.85;92.37
11672;BME280;5892;43.412;24.612;2023-08-06T02:30:00;98643.50;;;21.75;93.08
11672;BME280;5892;43.412;24.612;2023-08-06T02:32:29;98636.25;;;21.77;93.19
11672;BME280;5892;43.412;24.612;2023-08-06T02:34:57;98630.56;;;21.84;92.95
11672;BME280;5892;43.412;24.612;2023-08-06T02:37:24;98618.28;;;21.82;92.86
11672;BME280;5892;43.412;24.612;2023-08-06T02:39:51;98595.03;;;21.69;92.98
11672;BME280;5892;43.412;24.612;2023-08-06T02:42:18;98623.28;;;21.90;92.85
11672;BME280;5892;43.412;24.612;2023-08-06T02:44:47;98591.50;;;21.65;93.37
11672;BME280;5892;43.412;24.612;2023-08-06T02:47:14;98625.50;;;21.79;93.85
11672;BME280;5892;43.412;24.612;2023-08-06T02:49:43;98621.78;;;21.86;93.70
11672;BME280;5892;43.412;24.612;2023-08-06T02:52:10;98610.97;;;21.88;93.63
11672;BME280;5892;43.412;24.612;2023-08-06T02:54:37;98610.88;;;21.95;93.11
11672;BME280;5892;43.412;24.612;2023-08-06T02:57:05;98553.25;;;21.45;92.93
11672;BME280;5892;43.412;24.612;2023-08-06T02:59:32;98647.97;;;21.92;93.45
11672;BME280;5892;43.412;24.612;2023-08-06T03:02:01;98643.94;;;21.93;93.36
11672;BME280;5892;43.412;24.612;2023-08-06T03:04:29;98650.50;;;21.83;93.91
11672;BME280;5892;43.412;24.612;2023-08-06T03:06:56;98648.97;;;21.82;94.20
11672;BME280;5892;43.412;24.612;2023-08-06T03:09:22;98654.84;;;21.87;93.96
11672;BME280;5892;43.412;24.612;2023-08-06T03:11:50;98640.88;;;21.87;94.13
11672;BME280;5892;43.412;24.612;2023-08-06T03:14:17;98622.06;;;21.72;93.86
11672;BME280;5892;43.412;24.612;2023-08-06T03:16:45;98651.44;;;22.00;93.76
11672;BME280;5892;43.412;24.612;2023-08-06T03:19:16;98633.00;;;22.06;93.26
11672;BME280;5892;43.412;24.612;2023-08-06T03:21:43;98629.78;;;21.84;94.01
11672;BME280;5892;43.412;24.612;2023-08-06T03:24:11;98636.66;;;22.03;94.09
11672;BME280;5892;43.412;24.612;2023-08-06T03:26:38;98621.97;;;21.98;94.53
11672;BME280;5892;43.412;24.612;2023-08-06T03:29:05;98612.84;;;21.98;95.04
11672;BME280;5892;43.412;24.612;2023-08-06T03:31:32;98523.13;;;21.60;93.95
11672;BME280;5892;43.412;24.612;2023-08-06T03:33:59;98606.59;;;22.10;94.30
11672;BME280;5892;43.412;24.612;2023-08-06T03:36:27;98626.91;;;22.30;93.68
11672;BME280;5892;43.412;24.612;2023-08-06T03:38:54;98609.19;;;22.21;93.98
11672;BME280;5892;43.412;24.612;2023-08-06T03:41:21;98537.47;;;21.78;93.49
11672;BME280;5892;43.412;24.612;2023-08-06T03:43:52;98638.66;;;22.42;93.72
11672;BME280;5892;43.412;24.612;2023-08-06T03:46:20;98588.91;;;22.36;92.85
11672;BME280;5892;43.412;24.612;2023-08-06T03:48:47;98664.94;;;23.00;91.42
11672;BME280;5892;43.412;24.612;2023-08-06T03:51:14;98672.16;;;22.81;91.93
11672;BME280;5892;43.412;24.612;2023-08-06T03:53:44;98697.09;;;22.88;92.08
11672;BME280;5892;43.412;24.612;2023-08-06T03:56:11;98644.59;;;22.44;92.76
11672;BME280;5892;43.412;24.612;2023-08-06T03:58:38;98683.56;;;22.67;93.95
11672;BME280;5892;43.412;24.612;2023-08-06T04:01:06;98591.13;;;22.25;94.35
11672;BME280;5892;43.412;24.612;2023-08-06T04:03:33;98652.59;;;22.81;93.63
11672;BME280;5892;43.412;24.612;2023-08-06T04:06:00;98673.59;;;23.05;92.52
11672;BME280;5892;43.412;24.612;2023-08-06T04:08:28;98691.00;;;23.13;92.15
11672;BME280;5892;43.412;24.612;2023-08-06T04:10:57;98668.97;;;23.15;92.07
11672;BME280;5892;43.412;24.612;2023-08-06T04:13:24;98662.00;;;23.07;92.79
11672;BME280;5892;43.412;24.612;2023-08-06T04:15:51;98655.63;;;23.06;92.47
11672;BME280;5892;43.412;24.612;2023-08-06T04:18:23;98637.78;;;23.00;93.43
11672;BME280;5892;43.412;24.612;2023-08-06T04:20:50;98589.34;;;22.55;93.69
11672;BME280;5892;43.412;24.612;2023-08-06T04:23:18;98644.25;;;22.97;94.22
11672;BME280;5892;43.412;24.612;2023-08-06T04:25:45;98613.66;;;22.74;94.99
11672;BME280;5892;43.412;24.612;2023-08-06T04:28:16;98627.66;;;22.90;94.95
11672;BME280;5892;43.412;24.612;2023-08-06T04:30:43;98651.56;;;22.91;95.27
11672;BME280;5892;43.412;24.612;2023-08-06T04:33:11;98630.97;;;22.85;95.65
11672;BME280;5892;43.412;24.612;2023-08-06T04:35:39;98642.91;;;22.86;96.44
11672;BME280;5892;43.412;24.612;2023-08-06T04:38:06;98659.06;;;22.94;96.03
11672;BME280;5892;43.412;24.612;2023-08-06T04:40:33;98637.44;;;22.98;95.86
11672;BME280;5892;43.412;24.612;2023-08-06T04:43:00;98600.03;;;22.56;95.76
11672;BME280;5892;43.412;24.612;2023-08-06T04:45:29;98536.72;;;22.53;94.15
11672;BME280;5892;43.412;24.612;2023-08-06T04:47:56;98656.22;;;23.50;93.50
11672;BME280;5892;43.412;24.612;2023-08-06T04:50:23;98644.94;;;23.53;93.20
11672;BME280;5892;43.412;24.612;2023-08-06T04:52:49;98621.06;;;23.33;93.43
11672;BME280;5892;43.412;24.612;2023-08-06T04:55:18;98622.91;;;23.23;94.02
11672;BME280;5892;43.412;24.612;2023-08-06T04:57:55;98645.31;;;23.19;94.83
11672;BME280;5892;43.412;24.612;2023-08-06T05:00:24;98538.22;;;22.58;95.32
11672;BME280;5892;43.412;24.612;2023-08-06T05:02:53;98651.63;;;23.72;92.85
11672;BME280;5892;43.412;24.612;2023-08-06T05:05:20;98644.19;;;24.27;90.60
11672;BME280;5892;43.412;24.612;2023-08-06T05:07:48;98616.75;;;24.22;89.35
11672;BME280;5892;43.412;24.612;2023-08-06T05:10:16;98630.34;;;24.36;89.40
11672;BME280;5892;43.412;24.612;2023-08-06T05:12:42;98626.72;;;24.77;87.02
11672;BME280;5892;43.412;24.612;2023-08-06T05:15:09;98597.59;;;24.74;85.66
11672;BME280;5892;43.412;24.612;2023-08-06T05:17:37;98605.00;;;24.94;84.49
11672;BME280;5892;43.412;24.612;2023-08-06T05:20:06;98636.06;;;25.24;83.95
11672;BME280;5892;43.412;24.612;2023-08-06T05:22:34;98638.84;;;25.24;83.93
11672;BME280;5892;43.412;24.612;2023-08-06T05:25:04;98633.34;;;25.46;82.78
11672;BME280;5892;43.412;24.612;2023-08-06T05:27:31;98648.56;;;25.70;81.93
11672;BME280;5892;43.412;24.612;2023-08-06T05:29:58;98634.88;;;25.72;81.75
11672;BME280;5892;43.412;24.612;2023-08-06T05:32:25;98640.75;;;26.00;80.54
11672;BME280;5892;43.412;24.612;2023-08-06T05:34:52;98632.41;;;26.09;80.04
11672;BME280;5892;43.412;24.612;2023-08-06T05:37:21;98639.91;;;26.12;79.29
11672;BME280;5892;43.412;24.612;2023-08-06T05:39:48;98625.72;;;25.94;79.93
11672;BME280;5892;43.412;24.612;2023-08-06T05:42:15;98619.59;;;26.08;79.80
11672;BME280;5892;43.412;24.612;2023-08-06T05:44:42;98615.84;;;26.45;78.21
11672;BME280;5892;43.412;24.612;2023-08-06T05:47:09;98617.66;;;26.17;78.83
11672;BME280;5892;43.412;24.612;2023-08-06T05:49:36;98625.63;;;26.63;77.01
11672;BME280;5892;43.412;24.612;2023-08-06T05:52:04;98624.63;;;27.00;75.05
11672;BME280;5892;43.412;24.612;2023-08-06T05:54:35;98597.22;;;27.31;73.23
11672;BME280;5892;43.412;24.612;2023-08-06T05:57:04;98638.75;;;27.27;73.83
11672;BME280;5892;43.412;24.612;2023-08-06T05:59:31;98644.47;;;27.06;74.11
11672;BME280;5892;43.412;24.612;2023-08-06T06:01:59;98634.03;;;26.84;74.77
11672;BME280;5892;43.412;24.612;2023-08-06T06:04:25;98638.28;;;26.89;74.63
11672;BME280;5892;43.412;24.612;2023-08-06T06:06:52;98629.72;;;26.92;73.73
11672;BME280;5892;43.412;24.612;2023-08-06T06:09:19;98633.56;;;27.66;70.93
11672;BME280;5892;43.412;24.612;2023-08-06T06:11:48;98609.44;;;27.47;70.55
11672;BME280;5892;43.412;24.612;2023-08-06T06:14:15;98592.81;;;27.89;69.07
11672;BME280;5892;43.412;24.612;2023-08-06T06:16:44;98604.03;;;28.07;67.72
11672;BME280;5892;43.412;24.612;2023-08-06T06:19:14;98600.56;;;28.48;65.39
11672;BME280;5892;43.412;24.612;2023-08-06T06:21:41;98603.44;;;28.12;66.09
11672;BME280;5892;43.412;24.612;2023-08-06T06:24:08;98581.69;;;28.03;66.71
11672;BME280;5892;43.412;24.612;2023-08-06T06:26:35;98571.97;;;27.95;67.24
11672;BME280;5892;43.412;24.612;2023-08-06T06:29:03;98577.16;;;27.78;67.69
11672;BME280;5892;43.412;24.612;2023-08-06T06:31:30;98573.66;;;27.47;69.19
11672;BME280;5892;43.412;24.612;2023-08-06T06:33:57;98592.69;;;27.34;69.56
11672;BME280;5892;43.412;24.612;2023-08-06T06:36:24;98594.16;;;27.08;71.68
11672;BME280;5892;43.412;24.612;2023-08-06T06:38:51;98587.31;;;26.78;72.73
11672;BME280;5892;43.412;24.612;2023-08-06T06:41:17;98588.47;;;26.59;74.10
11672;BME280;5892;43.412;24.612;2023-08-06T06:43:44;98568.34;;;26.60;74.52
11672;BME280;5892;43.412;24.612;2023-08-06T06:46:12;98557.13;;;26.38;74.80
11672;BME280;5892;43.412;24.612;2023-08-06T06:48:42;98555.78;;;26.43;74.21
11672;BME280;5892;43.412;24.612;2023-08-06T06:51:09;98542.66;;;25.75;76.58
11672;BME280;5892;43.412;24.612;2023-08-06T06:53:36;98545.69;;;25.67;77.31
11672;BME280;5892;43.412;24.612;2023-08-06T06:56:04;98617.13;;;25.76;77.74
11672;BME280;5892;43.412;24.612;2023-08-06T06:58:31;98702.66;;;25.08;82.14
11672;BME280;5892;43.412;24.612;2023-08-06T07:00:58;98727.97;;;24.63;83.69
11672;BME280;5892;43.412;24.612;2023-08-06T07:03:27;98763.41;;;24.24;88.24
11672;BME280;5892;43.412;24.612;2023-08-06T07:05:57;98725.91;;;23.89;93.81
11672;BME280;5892;43.412;24.612;2023-08-06T07:08:25;98656.81;;;23.57;100.00
11672;BME280;5892;43.412;24.612;2023-08-06T07:10:59;98606.03;;;23.27;100.00
11672;BME280;5892;43.412;24.612;2023-08-06T07:13:26;98592.38;;;22.80;100.00
11672;BME280;5892;43.412;24.612;2023-08-06T07:15:54;98605.59;;;22.96;100.00
11672;BME280;5892;43.412;24.612;2023-08-06T07:18:21;98628.53;;;22.87;100.00
11672;BME280;5892;43.412;24.612;2023-08-06T07:20:49;98632.41;;;22.54;100.00
11672;BME280;5892;43.412;24.612;2023-08-06T07:23:16;98629.56;;;22.37;100.00
11672;BME280;5892;43.412;24.612;2023-08-06T07:25:43;98620.59;;;22.46;100.00
11672;BME280;5892;43.412;24.612;2023-08-06T07:28:10;98608.88;;;22.35;100.00
11672;BME280;5892;43.412;24.612;2023-08-06T07:30:38;98634.16;;;22.28;100.00
11672;BME280;5892;43.412;24.612;2023-08-06T07:33:05;98638.56;;;22.25;100.00
11672;BME280;5892;43.412;24.612;2023-08-06T07:35:32;98644.44;;;22.11;100.00
11672;BME280;5892;43.412;24.612;2023-08-06T07:38:00;98650.88;;;21.85;100.00
11672;BME280;5892;43.412;24.612;2023-08-06T07:40:28;98709.09;;;22.06;100.00
11672;BME280;5892;43.412;24.612;2023-08-06T07:42:55;98730.72;;;21.98;100.00
11672;BME280;5892;43.412;24.612;2023-08-06T07:45:22;98735.16;;;21.96;100.00
11672;BME280;5892;43.412;24.612;2023-08-06T07:47:49;98724.44;;;21.44;100.00
11672;BME280;5892;43.412;24.612;2023-08-06T07:50:16;98716.81;;;21.48;100.00
11672;BME280;5892;43.412;24.612;2023-08-06T07:52:43;98741.81;;;21.52;100.00
11672;BME280;5892;43.412;24.612;2023-08-06T07:55:11;98746.00;;;21.40;100.00
11672;BME280;5892;43.412;24.612;2023-08-06T07:57:38;98739.47;;;21.24;100.00
11672;BME280;5892;43.412;24.612;2023-08-06T08:00:06;98731.25;;;21.13;100.00
11672;BME280;5892;43.412;24.612;2023-08-06T08:02:33;98726.34;;;21.24;100.00
11672;BME280;5892;43.412;24.612;2023-08-06T08:05:00;98719.59;;;21.22;100.00
11672;BME280;5892;43.412;24.612;2023-08-06T08:07:27;98701.91;;;21.05;100.00
11672;BME280;5892;43.412;24.612;2023-08-06T08:09:55;98740.69;;;21.23;100.00
11672;BME280;5892;43.412;24.612;2023-08-06T08:12:24;98769.19;;;21.34;100.00
11672;BME280;5892;43.412;24.612;2023-08-06T08:14:51;98770.78;;;21.31;100.00
11672;BME280;5892;43.412;24.612;2023-08-06T08:17:18;98757.47;;;21.16;100.00
11672;BME280;5892;43.412;24.612;2023-08-06T08:19:46;98734.41;;;21.15;100.00
11672;BME280;5892;43.412;24.612;2023-08-06T08:22:13;98719.66;;;20.88;100.00
11672;BME280;5892;43.412;24.612;2023-08-06T08:24:40;98738.75;;;21.20;100.00
11672;BME280;5892;43.412;24.612;2023-08-06T08:27:06;98757.16;;;21.40;100.00
11672;BME280;5892;43.412;24.612;2023-08-06T08:29:35;98761.81;;;21.47;100.00
11672;BME280;5892;43.412;24.612;2023-08-06T08:32:03;98744.28;;;21.46;100.00
11672;BME280;5892;43.412;24.612;2023-08-06T08:34:33;98774.63;;;21.68;100.00
11672;BME280;5892;43.412;24.612;2023-08-06T08:37:00;98777.53;;;21.61;100.00
11672;BME280;5892;43.412;24.612;2023-08-06T08:39:26;98768.97;;;21.48;100.00
11672;BME280;5892;43.412;24.612;2023-08-06T08:41:53;98772.44;;;21.55;100.00
11672;BME280;5892;43.412;24.612;2023-08-06T08:44:20;98769.97;;;21.61;100.00
11672;BME280;5892;43.412;24.612;2023-08-06T08:46:50;98775.16;;;21.59;100.00
11672;BME280;5892;43.412;24.612;2023-08-06T08:49:18;98769.31;;;21.77;100.00
11672;BME280;5892;43.412;24.612;2023-08-06T08:51:46;98762.41;;;21.85;100.00
11672;BME280;5892;43.412;24.612;2023-08-06T08:54:16;98763.84;;;21.96;100.00
11672;BME280;5892;43.412;24.612;2023-08-06T08:56:44;98746.63;;;22.02;100.00
11672;BME280;5892;43.412;24.612;2023-08-06T08:59:11;98731.81;;;21.81;100.00
11672;BME280;5892;43.412;24.612;2023-08-06T09:01:39;98751.53;;;21.94;100.00
11672;BME280;5892;43.412;24.612;2023-08-06T09:04:09;98774.59;;;21.98;100.00
11672;BME280;5892;43.412;24.612;2023-08-06T09:06:38;98783.03;;;21.91;100.00
11672;BME280;5892;43.412;24.612;2023-08-06T09:09:08;98767.63;;;21.83;100.00
11672;BME280;5892;43.412;24.612;2023-08-06T09:11:39;98763.28;;;21.82;100.00
11672;BME280;5892;43.412;24.612;2023-08-06T09:14:07;98766.06;;;21.82;100.00
11672;BME280;5892;43.412;24.612;2023-08-06T09:16:34;98761.63;;;21.84;100.00
11672;BME280;5892;43.412;24.612;2023-08-06T09:19:09;98758.28;;;21.70;100.00
11672;BME280;5892;43.412;24.612;2023-08-06T09:21:39;98757.06;;;21.71;100.00
11672;BME280;5892;43.412;24.612;2023-08-06T09:24:09;98747.22;;;21.63;100.00
11672;BME280;5892;43.412;24.612;2023-08-06T09:26:37;98733.69;;;21.65;100.00
11672;BME280;5892;43.412;24.612;2023-08-06T09:29:09;98732.53;;;21.35;100.00
11672;BME280;5892;43.412;24.612;2023-08-06T09:31:41;98771.06;;;21.67;100.00
11672;BME280;5892;43.412;24.612;2023-08-06T09:34:15;98782.59;;;21.69;100.00
11672;BME280;5892;43.412;24.612;2023-08-06T09:36:42;98767.13;;;21.65;100.00
11672;BME280;5892;43.412;24.612;2023-08-06T09:39:13;98732.81;;;21.44;100.00
11672;BME280;5892;43.412;24.612;2023-08-06T09:41:40;98746.28;;;21.73;100.00
11672;BME280;5892;43.412;24.612;2023-08-06T09:44:15;98724.16;;;21.62;100.00
11672;BME280;5892;43.412;24.612;2023-08-06T09:46:42;98732.94;;;21.61;100.00
11672;BME280;5892;43.412;24.612;2023-08-06T09:49:09;98737.28;;;21.62;100.00
11672;BME280;5892;43.412;24.612;2023-08-06T09:51:38;98716.16;;;21.64;100.00
11672;BME280;5892;43.412;24.612;2023-08-06T09:54:08;98714.41;;;21.74;100.00
11672;BME280;5892;43.412;24.612;2023-08-06T09:56:38;98710.03;;;21.73;100.00
11672;BME280;5892;43.412;24.612;2023-08-06T09:59:05;98712.88;;;21.69;100.00
11672;BME280;5892;43.412;24.612;2023-08-06T10:01:33;98734.16;;;21.83;100.00
11672;BME280;5892;43.412;24.612;2023-08-06T10:04:01;98727.03;;;21.82;100.00
11672;BME280;5892;43.412;24.612;2023-08-06T10:06:29;98702.41;;;21.77;100.00
11672;BME280;5892;43.412;24.612;2023-08-06T10:08:58;98725.22;;;21.95;100.00
11672;BME280;5892;43.412;24.612;2023-08-06T10:11:25;98715.28;;;21.94;100.00
11672;BME280;5892;43.412;24.612;2023-08-06T10:13:55;98704.22;;;22.10;100.00
11672;BME280;5892;43.412;24.612;2023-08-06T10:16:25;98709.41;;;22.31;100.00
11672;BME280;5892;43.412;24.612;2023-08-06T10:18:53;98709.88;;;22.50;100.00
11672;BME280;5892;43.412;24.612;2023-08-06T10:21:23;98688.81;;;22.65;100.00
11672;BME280;5892;43.412;24.612;2023-08-06T10:23:54;98690.34;;;23.05;100.00
11672;BME280;5892;43.412;24.612;2023-08-06T10:26:25;98691.19;;;23.38;100.00
11672;BME280;5892;43.412;24.612;2023-08-06T10:28:52;98691.31;;;23.67;100.00
11672;BME280;5892;43.412;24.612;2023-08-06T10:31:19;98658.63;;;23.80;100.00
11672;BME280;5892;43.412;24.612;2023-08-06T10:33:47;98631.50;;;23.77;100.00
11672;BME280;5892;43.412;24.612;2023-08-06T10:36:15;98688.72;;;24.50;100.00
11672;BME280;5892;43.412;24.612;2023-08-06T10:38:45;98683.84;;;24.67;100.00
11672;BME280;5892;43.412;24.612;2023-08-06T10:41:23;98687.19;;;24.91;100.00
11672;BME280;5892;43.412;24.612;2023-08-06T10:44:05;98709.59;;;24.91;100.00
11672;BME280;5892;43.412;24.612;2023-08-06T10:46:32;98717.00;;;25.10;100.00
11672;BME280;5892;43.412;24.612;2023-08-06T10:48:59;98715.91;;;25.33;100.00
11672;BME280;5892;43.412;24.612;2023-08-06T10:51:26;98700.53;;;25.50;100.00
11672;BME280;5892;43.412;24.612;2023-08-06T10:53:54;98699.84;;;25.84;100.00
11672;BME280;5892;43.412;24.612;2023-08-06T10:56:23;98700.84;;;25.90;100.00
11672;BME280;5892;43.412;24.612;2023-08-06T10:58:53;98699.34;;;25.98;100.00
11672;BME280;5892;43.412;24.612;2023-08-06T11:01:22;98687.63;;;26.25;100.00
11672;BME280;5892;43.412;24.612;2023-08-06T11:03:49;98684.97;;;26.43;100.00
11672;BME280;5892;43.412;24.612;2023-08-06T11:06:19;98681.50;;;26.61;100.00
11672;BME280;5892;43.412;24.612;2023-08-06T11:08:50;98696.34;;;27.14;100.00
11672;BME280;5892;43.412;24.612;2023-08-06T11:11:18;98638.75;;;26.87;100.00
11672;BME280;5892;43.412;24.612;2023-08-06T11:13:48;98701.53;;;27.55;100.00
11672;BME280;5892;43.412;24.612;2023-08-06T11:16:15;98690.97;;;27.37;100.00
11672;BME280;5892;43.412;24.612;2023-08-06T11:18:44;98695.28;;;27.51;100.00
11672;BME280;5892;43.412;24.612;2023-08-06T11:21:11;98680.78;;;27.62;100.00
11672;BME280;5892;43.412;24.612;2023-08-06T11:23:38;98687.03;;;27.66;98.35
11672;BME280;5892;43.412;24.612;2023-08-06T11:26:05;98679.28;;;27.39;94.52
11672;BME280;5892;43.412;24.612;2023-08-06T11:28:32;98700.16;;;27.60;97.46
11672;BME280;5892;43.412;24.612;2023-08-06T11:31:01;98693.09;;;27.55;95.91
11672;BME280;5892;43.412;24.612;2023-08-06T11:33:29;98697.50;;;27.65;96.28
11672;BME280;5892;43.412;24.612;2023-08-06T11:35:58;98691.72;;;27.60;96.20
11672;BME280;5892;43.412;24.612;2023-08-06T11:38:25;98688.22;;;27.47;96.23
11672;BME280;5892;43.412;24.612;2023-08-06T11:40:53;98695.03;;;27.67;96.19
11672;BME280;5892;43.412;24.612;2023-08-06T11:43:20;98689.59;;;27.82;95.17
11672;BME280;5892;43.412;24.612;2023-08-06T11:45:49;98689.69;;;27.60;91.58
11672;BME280;5892;43.412;24.612;2023-08-06T11:48:19;98683.63;;;27.71;93.74
11672;BME280;5892;43.412;24.612;2023-08-06T11:50:46;98652.50;;;27.25;92.37
11672;BME280;5892;43.412;24.612;2023-08-06T11:53:14;98683.25;;;27.51;92.32
11672;BME280;5892;43.412;24.612;2023-08-06T11:55:41;98690.28;;;27.55;93.48
11672;BME280;5892;43.412;24.612;2023-08-06T11:58:09;98685.94;;;27.32;94.19
11672;BME280;5892;43.412;24.612;2023-08-06T12:00:37;98691.47;;;27.45;94.08
11672;BME280;5892;43.412;24.612;2023-08-06T12:03:05;98692.03;;;27.53;91.75
11672;BME280;5892;43.412;24.612;2023-08-06T12:05:33;98678.78;;;27.31;89.32
11672;BME280;5892;43.412;24.612;2023-08-06T12:08:01;98688.97;;;27.78;90.82
11672;BME280;5892;43.412;24.612;2023-08-06T12:10:30;98702.94;;;28.18;89.99
11672;BME280;5892;43.412;24.612;2023-08-06T12:12:59;98693.72;;;28.17;87.83
11672;BME280;5892;43.412;24.612;2023-08-06T12:15:26;98702.03;;;28.30;84.94
11672;BME280;5892;43.412;24.612;2023-08-06T12:17:53;98694.94;;;28.07;82.32
11672;BME280;5892;43.412;24.612;2023-08-06T12:20:20;98690.25;;;28.04;81.39
11672;BME280;5892;43.412;24.612;2023-08-06T12:22:49;98691.69;;;28.27;81.31
11672;BME280;5892;43.412;24.612;2023-08-06T12:25:16;98693.25;;;28.28;78.35
11672;BME280;5892;43.412;24.612;2023-08-06T12:27:44;98684.91;;;28.06;80.43
11672;BME280;5892;43.412;24.612;2023-08-06T12:30:12;98675.38;;;28.04;76.18
11672;BME280;5892;43.412;24.612;2023-08-06T12:32:39;98684.28;;;28.11;76.53
11672;BME280;5892;43.412;24.612;2023-08-06T12:35:07;98679.50;;;28.30;78.31
11672;BME280;5892;43.412;24.612;2023-08-06T12:37:35;98684.31;;;28.48;77.09
11672;BME280;5892;43.412;24.612;2023-08-06T12:40:06;98674.31;;;28.38;75.48
11672;BME280;5892;43.412;24.612;2023-08-06T12:42:35;98692.94;;;28.17;75.31
11672;BME280;5892;43.412;24.612;2023-08-06T12:45:03;98684.97;;;28.15;77.85
11672;BME280;5892;43.412;24.612;2023-08-06T12:47:30;98649.72;;;28.11;74.85
11672;BME280;5892;43.412;24.612;2023-08-06T12:49:57;98685.88;;;28.49;75.74
11672;BME280;5892;43.412;24.612;2023-08-06T12:52:24;98679.28;;;28.79;73.02
11672;BME280;5892;43.412;24.612;2023-08-06T12:54:51;98666.38;;;29.05;71.63
11672;BME280;5892;43.412;24.612;2023-08-06T12:57:19;98667.81;;;29.43;70.05
11672;BME280;5892;43.412;24.612;2023-08-06T12:59:47;98674.06;;;29.47;69.71
11672;BME280;5892;43.412;24.612;2023-08-06T13:02:14;98660.59;;;29.42;69.36